Time;durP1;ratioP1;P1;durP2;ratioP2;P2;SDS_P1;SDS_P2;PMS_P1;PMS_P2;Temp;Humidity;BMP_temperature;BMP_pressure;BME280_temperature;BME280_humidity;BME280_pressure;Samples;Min_cycle;Max_cycle;Signal;HPM_P1;HPM_P2
2022/03/14 00:00:38;;;;;;;;;;;;;;;-3.40;59.07;96409.34;5075780;28;1837;-50
2022/03/14 00:03:05;;;;;;;;;;;;;;;-3.43;59.13;96412.06;5075690;28;1989;-50
2022/03/14 00:05:31;;;;;;;;;;;;;;;-3.38;58.72;96415.41;5075817;28;985;-50
2022/03/14 00:07:59;;;;;;;;;;;;;;;-3.60;59.22;96409.09;5075964;28;1031;-50
2022/03/14 00:10:25;;;;;;;;;;;;;;;-3.75;59.85;96413.00;5075858;28;961;-50
2022/03/14 00:12:57;;;;;;;;;;;;;;;-3.76;59.92;96404.28;5075409;28;1033;-50
2022/03/14 00:15:25;;;;;;;;;;;;;;;-3.69;59.52;96418.06;5075411;28;1060;-50
2022/03/14 00:17:52;;;;;;;;;;;;;;;-3.77;59.55;96418.28;5075750;28;1048;-50
2022/03/14 00:20:18;;;;;;;;;;;;;;;-4.07;59.65;96422.59;5075514;28;1064;-50
2022/03/14 00:22:47;;;;;;;;;;;;;;;-3.97;59.94;96424.03;5075504;28;1999;-50
2022/03/14 00:25:13;;;;;;;;;;;;;;;-3.94;60.26;96420.50;5075256;28;1040;-50
2022/03/14 00:27:39;;;;;;;;;;;;;;;-3.97;59.64;96417.97;5075398;28;1009;-50
2022/03/14 00:30:12;;;;;;;;;;;;;;;-4.13;59.51;96421.00;5075370;28;1040;-50
2022/03/14 00:32:39;;;;;;;;;;;;;;;-4.12;59.32;96424.47;5075659;28;1152;-50
2022/03/14 00:35:07;;;;;;;;;;;;;;;-3.93;60.02;96420.47;5074906;28;1087;-50
2022/03/14 00:37:33;;;;;;;;;;;;;;;-3.82;58.81;96414.06;5075231;28;1080;-50
2022/03/14 00:40:00;;;;;;;;;;;;;;;-3.86;60.65;96418.53;5075241;28;960;-50
2022/03/14 00:42:26;;;;;;;;;;;;;;;-4.02;60.06;96425.06;5074768;28;1999;-50
2022/03/14 00:44:52;;;;;;;;;;;;;;;-4.03;60.39;96425.97;5074695;28;1044;-50
2022/03/14 00:47:19;;;;;;;;;;;;;;;-4.07;60.29;96435.66;5075275;28;965;-50
2022/03/14 00:49:46;;;;;;;;;;;;;;;-4.13;59.74;96430.59;5075004;28;981;-50
2022/03/14 00:52:12;;;;;;;;;;;;;;;-4.34;60.27;96437.25;5075103;28;1221;-50
2022/03/14 00:54:38;;;;;;;;;;;;;;;-4.44;60.77;96440.97;5075094;28;1052;-50
2022/03/14 00:57:05;;;;;;;;;;;;;;;-4.56;60.91;96434.31;5074694;28;1024;-50
2022/03/14 00:59:31;;;;;;;;;;;;;;;-4.52;61.15;96441.16;5075024;28;981;-50
2022/03/14 01:01:57;;;;;;;;;;;;;;;-4.64;61.10;96442.31;5074686;28;1914;-50
2022/03/14 01:04:23;;;;;;;;;;;;;;;-4.79;61.08;96450.53;5074866;28;972;-50
2022/03/14 01:06:49;;;;;;;;;;;;;;;-4.92;61.78;96439.50;5074594;28;1026;-50
2022/03/14 01:09:15;;;;;;;;;;;;;;;-5.03;61.59;96444.97;5074717;28;985;-50
2022/03/14 01:11:41;;;;;;;;;;;;;;;-5.13;61.38;96438.25;5074378;28;1016;-50
2022/03/14 01:14:07;;;;;;;;;;;;;;;-5.25;61.56;96454.19;5073215;28;1039;-50
2022/03/14 01:16:34;;;;;;;;;;;;;;;-5.00;61.16;96457.09;5074272;28;1205;-50
2022/03/14 01:19:00;;;;;;;;;;;;;;;-4.70;60.89;96463.34;5074629;28;1051;-50
2022/03/14 01:21:30;;;;;;;;;;;;;;;-4.43;60.63;96455.75;5074082;28;1987;-50
2022/03/14 01:23:56;;;;;;;;;;;;;;;-4.48;59.81;96463.69;5074347;28;1013;-50
2022/03/14 01:26:22;;;;;;;;;;;;;;;-4.57;60.10;96456.94;5073391;28;1025;-50
2022/03/14 01:28:48;;;;;;;;;;;;;;;-4.75;61.28;96455.63;5072906;28;969;-50
2022/03/14 01:31:15;;;;;;;;;;;;;;;-4.68;60.80;96461.56;5074234;28;1044;-50
2022/03/14 01:33:41;;;;;;;;;;;;;;;-4.71;61.33;96462.47;5074114;28;1122;-50
2022/03/14 01:36:07;;;;;;;;;;;;;;;-4.65;60.44;96465.84;5073897;28;956;-50
2022/03/14 01:38:33;;;;;;;;;;;;;;;-4.76;60.69;96460.88;5073987;28;1103;-50
2022/03/14 01:40:59;;;;;;;;;;;;;;;-4.84;60.70;96474.09;5073650;28;1090;-51
2022/03/14 01:43:26;;;;;;;;;;;;;;;-4.99;60.96;96474.47;5073904;28;1906;-50
2022/03/14 01:45:58;;;;;;;;;;;;;;;-5.06;61.07;96471.16;5073676;28;1198;-50
2022/03/14 01:48:24;;;;;;;;;;;;;;;-4.94;61.34;96473.47;5074007;28;1023;-50
2022/03/14 01:50:51;;;;;;;;;;;;;;;-4.67;60.16;96471.09;5073682;28;1217;-50
2022/03/14 01:53:20;;;;;;;;;;;;;;;-4.55;59.79;96464.75;5073721;28;1092;-50
2022/03/14 01:55:47;;;;;;;;;;;;;;;-4.53;60.21;96476.84;5073475;28;1008;-50
2022/03/14 01:58:14;;;;;;;;;;;;;;;-4.71;59.96;96475.53;5073621;28;1021;-50
2022/03/14 02:00:41;;;;;;;;;;;;;;;-4.92;61.26;96479.50;5073468;28;1012;-50
2022/03/14 02:03:07;;;;;;;;;;;;;;;-5.03;61.90;96488.47;5073396;28;1926;-50
2022/03/14 02:05:37;;;;;;;;;;;;;;;-4.92;61.85;96484.72;5073742;28;1015;-50
2022/03/14 02:08:04;;;;;;;;;;;;;;;-4.83;61.03;96493.25;5073350;28;1044;-50
2022/03/14 02:10:30;;;;;;;;;;;;;;;-5.08;61.16;96488.59;5073732;28;1622;-50
2022/03/14 02:12:57;;;;;;;;;;;;;;;-5.14;61.91;96484.34;5073209;28;1011;-50
2022/03/14 02:15:23;;;;;;;;;;;;;;;-5.02;61.44;96480.63;5073697;28;973;-50
2022/03/14 02:17:49;;;;;;;;;;;;;;;-5.15;61.55;96484.38;5073273;28;921;-50
2022/03/14 02:20:16;;;;;;;;;;;;;;;-5.38;61.79;96492.69;5073265;28;1838;-50
2022/03/14 02:22:42;;;;;;;;;;;;;;;-5.50;62.59;96493.81;5073231;28;1918;-50
2022/03/14 02:25:09;;;;;;;;;;;;;;;-5.64;61.92;96491.47;5073170;28;1082;-50
2022/03/14 02:27:36;;;;;;;;;;;;;;;-5.70;62.31;96497.66;5073478;28;973;-50
2022/03/14 02:30:03;;;;;;;;;;;;;;;-5.52;61.85;96498.19;5073191;28;1096;-50
2022/03/14 02:32:29;;;;;;;;;;;;;;;-5.38;61.93;96501.38;5073388;28;1007;-50
2022/03/14 02:34:55;;;;;;;;;;;;;;;-5.21;61.56;96494.97;5073057;28;1024;-50
2022/03/14 02:37:21;;;;;;;;;;;;;;;-5.19;60.73;96503.59;5072925;28;1059;-50
2022/03/14 02:39:48;;;;;;;;;;;;;;;-5.36;60.80;96502.19;5073049;28;996;-50
2022/03/14 02:42:14;;;;;;;;;;;;;;;-5.36;61.72;96509.16;5072652;28;1989;-50
2022/03/14 02:44:42;;;;;;;;;;;;;;;-5.26;61.77;96507.22;5073264;28;1060;-50
2022/03/14 02:47:09;;;;;;;;;;;;;;;-5.25;61.24;96512.41;5072978;28;1035;-50
2022/03/14 02:49:36;;;;;;;;;;;;;;;-5.24;60.49;96513.25;5073346;28;1076;-50
2022/03/14 02:52:03;;;;;;;;;;;;;;;-5.08;60.88;96519.88;5073028;28;1244;-50
2022/03/14 02:54:29;;;;;;;;;;;;;;;-5.35;60.46;96519.56;5072964;28;1021;-50
2022/03/14 02:56:56;;;;;;;;;;;;;;;-5.81;61.96;96515.25;5073040;28;1000;-50
2022/03/14 02:59:23;;;;;;;;;;;;;;;-6.07;62.38;96505.31;5073009;28;1031;-50
2022/03/14 03:01:49;;;;;;;;;;;;;;;-5.80;62.55;96526.53;5072812;28;1910;-50
2022/03/14 03:04:15;;;;;;;;;;;;;;;-5.51;61.93;96523.38;5073125;28;964;-50
2022/03/14 03:06:42;;;;;;;;;;;;;;;-5.56;60.59;96523.47;5073033;28;1056;-50
2022/03/14 03:09:08;;;;;;;;;;;;;;;-5.73;60.91;96531.59;5072953;28;1112;-50
2022/03/14 03:11:34;;;;;;;;;;;;;;;-5.89;62.42;96536.22;5073127;28;1047;-50
2022/03/14 03:14:01;;;;;;;;;;;;;;;-5.73;63.15;96534.22;5072609;28;1062;-50
2022/03/14 03:16:27;;;;;;;;;;;;;;;-5.66;61.81;96547.13;5073121;28;984;-50
2022/03/14 03:18:54;;;;;;;;;;;;;;;-6.02;61.66;96550.38;5072580;28;1068;-50
2022/03/14 03:21:20;;;;;;;;;;;;;;;-6.09;62.72;96544.44;5072907;28;969;-49
2022/03/14 03:23:46;;;;;;;;;;;;;;;-6.17;63.25;96550.66;5072623;28;1910;-50
2022/03/14 03:26:12;;;;;;;;;;;;;;;-5.97;62.56;96548.56;5073069;28;980;-50
2022/03/14 03:28:38;;;;;;;;;;;;;;;-5.73;62.21;96556.78;5072580;28;979;-50
2022/03/14 03:31:04;;;;;;;;;;;;;;;-5.68;62.49;96558.41;5072718;28;976;-50
2022/03/14 03:33:30;;;;;;;;;;;;;;;-5.54;61.74;96566.00;5072430;28;1178;-50
2022/03/14 03:35:57;;;;;;;;;;;;;;;-5.67;61.30;96574.94;5072414;28;1032;-50
2022/03/14 03:38:23;;;;;;;;;;;;;;;-5.84;62.47;96576.97;5072312;28;1015;-50
2022/03/14 03:40:48;;;;;;;;;;;;;;;-5.69;62.29;96579.31;5072844;28;1054;-50
2022/03/14 03:43:15;;;;;;;;;;;;;;;-5.66;61.96;96584.44;5071969;28;1906;-50
2022/03/14 03:45:41;;;;;;;;;;;;;;;-5.44;62.60;96590.13;5072484;28;1024;-50
2022/03/14 03:48:07;;;;;;;;;;;;;;;-5.73;61.26;96593.25;5072419;28;953;-50
2022/03/14 03:50:33;;;;;;;;;;;;;;;-5.93;62.03;96597.09;5074902;28;1165;-50
2022/03/14 03:53:00;;;;;;;;;;;;;;;-6.23;63.42;96601.06;5075791;28;965;-50
2022/03/14 03:55:26;;;;;;;;;;;;;;;-6.50;63.47;96605.81;5076304;28;1096;-50
2022/03/14 03:57:52;;;;;;;;;;;;;;;-6.56;64.30;96605.06;5075941;28;1048;-50
2022/03/14 04:00:19;;;;;;;;;;;;;;;-6.36;63.76;96617.78;5076199;28;976;-49
2022/03/14 04:02:45;;;;;;;;;;;;;;;-6.32;63.14;96619.44;5075669;28;987;-50
2022/03/14 04:05:16;;;;;;;;;;;;;;;-6.30;62.65;96623.75;5075728;28;1028;-50
2022/03/14 04:07:42;;;;;;;;;;;;;;;-6.27;62.68;96612.44;5076336;28;1627;-50
2022/03/14 04:10:09;;;;;;;;;;;;;;;-6.04;62.57;96613.81;5075498;28;1008;-50
2022/03/14 04:12:37;;;;;;;;;;;;;;;-5.89;61.92;96609.16;5075391;28;1991;-50
2022/03/14 04:15:04;;;;;;;;;;;;;;;-5.92;62.66;96614.44;5075714;28;1035;-50
2022/03/14 04:17:31;;;;;;;;;;;;;;;-5.99;61.51;96617.22;5075605;28;1013;-50
2022/03/14 04:20:00;;;;;;;;;;;;;;;-6.14;62.71;96615.72;5075277;28;1067;-50
2022/03/14 04:22:27;;;;;;;;;;;;;;;-6.20;62.74;96616.66;5075463;28;1055;-50
2022/03/14 04:24:53;;;;;;;;;;;;;;;-6.18;63.49;96620.09;5075225;28;1039;-50
2022/03/14 04:27:19;;;;;;;;;;;;;;;-6.32;63.00;96629.84;5075442;28;1041;-50
2022/03/14 04:29:46;;;;;;;;;;;;;;;-6.28;63.62;96626.31;5075445;28;1036;-49
2022/03/14 04:32:12;;;;;;;;;;;;;;;-6.11;63.56;96634.75;5075547;28;1985;-50
2022/03/14 04:34:38;;;;;;;;;;;;;;;-6.23;62.80;96634.94;5075300;28;965;-50
2022/03/14 04:37:04;;;;;;;;;;;;;;;-6.40;63.25;96637.78;5075395;28;980;-50
2022/03/14 04:39:30;;;;;;;;;;;;;;;-6.57;64.27;96640.63;5075313;28;1043;-49
2022/03/14 04:41:56;;;;;;;;;;;;;;;-6.32;63.61;96648.97;5074699;28;1085;-49
2022/03/14 04:44:23;;;;;;;;;;;;;;;-6.39;63.88;96651.66;5075310;28;973;-50
2022/03/14 04:46:49;;;;;;;;;;;;;;;-6.59;63.70;96655.41;5074962;28;1052;-49
2022/03/14 04:49:15;;;;;;;;;;;;;;;-6.88;64.45;96656.63;5075000;28;1016;-49
2022/03/14 04:51:42;;;;;;;;;;;;;;;-6.95;64.33;96661.94;5074683;28;2001;-50
2022/03/14 04:54:08;;;;;;;;;;;;;;;-6.77;64.98;96663.44;5074904;28;972;-50
2022/03/14 04:56:34;;;;;;;;;;;;;;;-6.44;64.30;96669.94;5075063;28;1103;-50
2022/03/14 04:59:00;;;;;;;;;;;;;;;-6.33;64.09;96675.00;5074694;28;1047;-50
2022/03/14 05:01:26;;;;;;;;;;;;;;;-6.23;63.12;96673.97;5074837;28;960;-49
2022/03/14 05:03:52;;;;;;;;;;;;;;;-5.87;62.84;96671.66;5074717;28;991;-50
2022/03/14 05:06:18;;;;;;;;;;;;;;;-5.82;62.85;96674.19;5074618;28;1016;-50
2022/03/14 05:08:45;;;;;;;;;;;;;;;-5.92;62.59;96676.97;5074680;28;985;-50
2022/03/14 05:11:11;;;;;;;;;;;;;;;-6.21;62.82;96682.63;5074563;28;979;-49
2022/03/14 05:13:38;;;;;;;;;;;;;;;-6.33;63.69;96691.47;5074473;28;1913;-50
2022/03/14 05:16:04;;;;;;;;;;;;;;;-6.03;63.28;96693.66;5074316;28;983;-50
2022/03/14 05:18:30;;;;;;;;;;;;;;;-5.91;62.63;96694.28;5074366;28;1143;-50
2022/03/14 05:20:56;;;;;;;;;;;;;;;-5.61;62.91;96689.50;5074313;28;972;-49
2022/03/14 05:23:23;;;;;;;;;;;;;;;-5.42;61.95;96697.84;5074574;28;1027;-49
2022/03/14 05:25:49;;;;;;;;;;;;;;;-5.17;61.82;96694.81;5073983;28;1087;-50
2022/03/14 05:28:15;;;;;;;;;;;;;;;-4.83;61.12;96697.63;5074329;28;981;-50
2022/03/14 05:30:41;;;;;;;;;;;;;;;-4.62;61.34;96705.94;5073928;28;1033;-50
2022/03/14 05:33:07;;;;;;;;;;;;;;;-4.56;61.06;96711.03;5074155;28;1906;-50
2022/03/14 05:35:33;;;;;;;;;;;;;;;-4.38;60.83;96710.66;5073873;28;1024;-49
2022/03/14 05:37:59;;;;;;;;;;;;;;;-4.07;60.20;96711.75;5074187;28;1125;-50
2022/03/14 05:40:25;;;;;;;;;;;;;;;-3.70;59.07;96718.72;5074072;28;1032;-50
2022/03/14 05:42:51;;;;;;;;;;;;;;;-3.54;59.03;96728.78;5073571;28;1101;-50
2022/03/14 05:45:18;;;;;;;;;;;;;;;-3.56;58.82;96735.81;5073666;28;1088;-50
2022/03/14 05:47:44;;;;;;;;;;;;;;;-3.39;59.27;96742.41;5072616;28;1943;-51
2022/03/14 05:50:10;;;;;;;;;;;;;;;-3.16;55.50;96731.34;5073558;28;1238;-50
2022/03/14 05:52:36;;;;;;;;;;;;;;;-2.79;54.36;96736.50;5073532;28;2048;-50
2022/03/14 05:55:03;;;;;;;;;;;;;;;-2.49;55.37;96733.06;5073644;28;937;-50
2022/03/14 05:57:29;;;;;;;;;;;;;;;-2.33;54.36;96736.09;5073853;28;968;-50
2022/03/14 05:59:55;;;;;;;;;;;;;;;-2.03;53.17;96736.97;5073649;28;1044;-50
2022/03/14 06:02:21;;;;;;;;;;;;;;;-1.73;51.95;96729.94;5073461;28;1036;-50
2022/03/14 06:04:49;;;;;;;;;;;;;;;-1.47;52.83;96746.63;5073355;28;980;-50
2022/03/14 06:07:15;;;;;;;;;;;;;;;-1.00;50.84;96744.22;5073808;28;1047;-51
2022/03/14 06:09:41;;;;;;;;;;;;;;;-0.47;48.94;96736.22;5073465;28;1028;-50
2022/03/14 06:12:07;;;;;;;;;;;;;;;0.23;46.08;96739.78;5072526;28;1997;-51
2022/03/14 06:14:34;;;;;;;;;;;;;;;1.94;43.38;96738.78;5073561;28;965;-51
2022/03/14 06:17:00;;;;;;;;;;;;;;;4.70;38.00;96751.31;5072990;28;1112;-51
2022/03/14 06:19:26;;;;;;;;;;;;;;;6.91;34.42;96755.75;5073361;28;1036;-52
2022/03/14 06:21:52;;;;;;;;;;;;;;;7.90;31.31;96749.22;5073685;28;973;-51
2022/03/14 06:24:18;;;;;;;;;;;;;;;8.94;30.59;96762.34;5073476;28;1038;-51
2022/03/14 06:26:44;;;;;;;;;;;;;;;11.47;27.29;96754.31;5073116;28;1020;-51
2022/03/14 06:29:10;;;;;;;;;;;;;;;12.68;25.03;96757.41;5073239;28;1028;-52
2022/03/14 06:31:36;;;;;;;;;;;;;;;13.74;23.22;96763.19;5072941;28;1999;-51
2022/03/14 06:34:02;;;;;;;;;;;;;;;15.00;22.12;96764.72;5073047;28;1048;-51
2022/03/14 06:36:28;;;;;;;;;;;;;;;16.23;21.25;96767.88;5073265;28;968;-49
2022/03/14 06:38:57;;;;;;;;;;;;;;;16.10;21.07;96768.25;5073021;28;1096;-49
2022/03/14 06:41:24;;;;;;;;;;;;;;;16.33;20.56;96775.84;5072746;28;1089;-50
2022/03/14 06:43:53;;;;;;;;;;;;;;;15.34;20.70;96777.59;5073182;28;985;-49
2022/03/14 06:46:19;;;;;;;;;;;;;;;13.99;21.81;96779.72;5072808;28;981;-49
2022/03/14 06:48:46;;;;;;;;;;;;;;;13.93;22.43;96780.31;5073250;28;1049;-49
2022/03/14 06:51:13;;;;;;;;;;;;;;;15.55;20.85;96780.00;5072944;28;1210;-49
2022/03/14 06:53:39;;;;;;;;;;;;;;;16.41;20.31;96784.03;5072946;28;1989;-49
2022/03/14 06:56:06;;;;;;;;;;;;;;;16.84;19.65;96781.47;5072832;28;1076;-49
2022/03/14 06:58:34;;;;;;;;;;;;;;;15.89;20.93;96775.84;5073103;28;1017;-49
2022/03/14 07:01:00;;;;;;;;;;;;;;;14.05;21.31;96788.06;5072669;28;980;-48
2022/03/14 07:03:27;;;;;;;;;;;;;;;13.40;22.82;96790.44;5073010;28;1043;-48
2022/03/14 07:05:53;;;;;;;;;;;;;;;15.09;21.82;96781.00;5072705;28;1024;-48
2022/03/14 07:08:19;;;;;;;;;;;;;;;16.74;19.79;96784.25;5073267;28;1035;-49
2022/03/14 07:10:45;;;;;;;;;;;;;;;17.12;19.04;96788.34;5072715;28;1107;-48
2022/03/14 07:13:11;;;;;;;;;;;;;;;18.22;19.25;96782.03;5072828;28;1914;-48
2022/03/14 07:15:37;;;;;;;;;;;;;;;18.07;18.79;96782.72;5072862;28;1008;-49
2022/03/14 07:18:03;;;;;;;;;;;;;;;17.42;19.33;96783.41;5072963;28;1048;-48
2022/03/14 07:20:29;;;;;;;;;;;;;;;16.78;20.50;96782.91;5072863;28;1051;-48
2022/03/14 07:22:57;;;;;;;;;;;;;;;16.81;20.58;96782.59;5072683;28;1028;-48
2022/03/14 07:25:27;;;;;;;;;;;;;;;16.86;20.33;96779.44;5075295;28;956;-49
2022/03/14 07:27:54;;;;;;;;;;;;;;;18.42;19.56;96786.09;5076429;28;1019;-49
2022/03/14 07:30:21;;;;;;;;;;;;;;;19.72;18.62;96794.06;5076790;28;984;-49
2022/03/14 07:32:47;;;;;;;;;;;;;;;21.07;17.45;96793.44;5076361;28;1094;-49
2022/03/14 07:35:13;;;;;;;;;;;;;;;22.29;16.04;96795.63;5076822;28;1003;-48
2022/03/14 07:37:40;;;;;;;;;;;;;;;22.47;15.91;96797.88;5076284;28;1880;-49
2022/03/14 07:40:07;;;;;;;;;;;;;;;22.57;15.49;96798.38;5076586;28;965;-49
2022/03/14 07:42:38;;;;;;;;;;;;;;;23.14;15.72;96799.25;5075882;28;1914;-49
2022/03/14 07:45:04;;;;;;;;;;;;;;;23.72;15.08;96798.09;5076117;28;1130;-49
2022/03/14 07:47:30;;;;;;;;;;;;;;;23.03;15.03;96798.94;5076210;28;1012;-49
2022/03/14 07:49:56;;;;;;;;;;;;;;;23.32;15.09;96797.91;5076290;28;1032;-49
2022/03/14 07:52:23;;;;;;;;;;;;;;;24.04;14.66;96804.75;5076071;28;1230;-50
2022/03/14 07:54:49;;;;;;;;;;;;;;;24.00;14.24;96800.75;5076118;28;1021;-49
2022/03/14 07:57:15;;;;;;;;;;;;;;;24.46;14.45;96807.34;5076242;28;961;-49
2022/03/14 07:59:41;;;;;;;;;;;;;;;25.52;13.70;96806.47;5075883;28;981;-49
2022/03/14 08:02:07;;;;;;;;;;;;;;;25.52;13.12;96806.47;5075555;28;1910;-49
2022/03/14 08:04:38;;;;;;;;;;;;;;;25.55;13.66;96794.25;5075949;28;1148;-50
2022/03/14 08:07:04;;;;;;;;;;;;;;;25.89;13.71;96802.09;5075632;28;1012;-49
2022/03/14 08:09:30;;;;;;;;;;;;;;;26.05;12.78;96800.81;5075721;28;1020;-49
2022/03/14 08:11:58;;;;;;;;;;;;;;;25.82;12.72;96795.84;5075198;28;1008;-49
2022/03/14 08:14:24;;;;;;;;;;;;;;;26.29;12.36;96799.19;5075740;28;993;-50
2022/03/14 08:16:50;;;;;;;;;;;;;;;27.01;12.45;96793.38;5075704;28;1110;-50
2022/03/14 08:19:16;;;;;;;;;;;;;;;26.58;11.95;96799.63;5075960;28;1222;-50
2022/03/14 08:21:42;;;;;;;;;;;;;;;27.18;11.80;96798.28;5074624;28;1910;-50
2022/03/14 08:24:09;;;;;;;;;;;;;;;27.99;11.46;96793.63;5075312;28;1020;-50
2022/03/14 08:26:35;;;;;;;;;;;;;;;27.48;12.62;96792.94;5075472;28;1134;-49
2022/03/14 08:29:01;;;;;;;;;;;;;;;27.59;11.42;96791.34;5075415;28;1044;-50
2022/03/14 08:31:30;;;;;;;;;;;;;;;27.91;11.66;96791.19;5075393;28;1839;-49
2022/03/14 08:33:57;;;;;;;;;;;;;;;27.41;11.36;96789.41;5075203;28;941;-50
2022/03/14 08:36:23;;;;;;;;;;;;;;;27.07;12.02;96787.00;5075275;28;1036;-50
2022/03/14 08:38:49;;;;;;;;;;;;;;;26.54;12.77;96792.91;5075170;28;1080;-49
2022/03/14 08:41:16;;;;;;;;;;;;;;;24.06;13.79;96790.88;5075353;28;1121;-49
2022/03/14 08:43:43;;;;;;;;;;;;;;;21.65;15.53;96777.31;5074778;28;1910;-48
2022/03/14 08:46:10;;;;;;;;;;;;;;;19.36;17.66;96769.28;5075255;28;1004;-48
2022/03/14 08:48:36;;;;;;;;;;;;;;;17.69;18.53;96774.16;5074902;28;913;-48
2022/03/14 08:51:02;;;;;;;;;;;;;;;16.63;19.67;96768.31;5075152;28;1209;-47
2022/03/14 08:53:29;;;;;;;;;;;;;;;15.84;20.94;96768.22;5075180;28;941;-48
2022/03/14 08:55:55;;;;;;;;;;;;;;;15.90;21.11;96766.75;5074868;28;1059;-47
2022/03/14 08:58:22;;;;;;;;;;;;;;;16.62;21.05;96766.59;5074999;28;1031;-47
2022/03/14 09:00:48;;;;;;;;;;;;;;;15.28;21.26;96761.19;5074937;28;1000;-48
2022/03/14 09:03:13;;;;;;;;;;;;;;;15.60;21.62;96756.16;5074562;28;1906;-48
2022/03/14 09:05:39;;;;;;;;;;;;;;;15.90;21.26;96756.81;5074725;28;1024;-48
2022/03/14 09:08:05;;;;;;;;;;;;;;;15.93;20.96;96750.25;5074534;28;976;-48
2022/03/14 09:10:36;;;;;;;;;;;;;;;15.83;20.91;96747.63;5074758;28;1032;-48
2022/03/14 09:13:03;;;;;;;;;;;;;;;15.73;20.01;96746.84;5072885;28;969;-47
2022/03/14 09:15:30;;;;;;;;;;;;;;;15.65;20.43;96744.91;5074596;28;1048;-48
2022/03/14 09:17:59;;;;;;;;;;;;;;;15.68;19.91;96741.06;5074549;28;961;-47
2022/03/14 09:20:26;;;;;;;;;;;;;;;15.51;19.95;96746.28;5074535;28;1856;-48
2022/03/14 09:26:13;;;;;;;;;;;;;;;14.86;20.70;96740.16;5074594;28;664;-47
2022/03/14 09:28:44;;;;;;;;;;;;;;;14.21;20.91;96736.38;5074314;28;1031;-48
2022/03/14 09:31:13;;;;;;;;;;;;;;;14.03;22.41;96738.94;5074284;28;929;-48
2022/03/14 09:33:39;;;;;;;;;;;;;;;13.88;22.51;96735.00;5074000;28;1103;-47
2022/03/14 09:36:06;;;;;;;;;;;;;;;13.67;20.85;96736.00;5074290;28;956;-47
2022/03/14 09:38:33;;;;;;;;;;;;;;;12.98;21.86;96736.88;5073918;28;1052;-47
2022/03/14 09:41:03;;;;;;;;;;;;;;;12.45;21.94;96729.91;5073987;28;1142;-47
2022/03/14 09:43:30;;;;;;;;;;;;;;;12.50;22.03;96733.03;5073892;28;1913;-47
2022/03/14 09:45:58;;;;;;;;;;;;;;;12.11;21.98;96726.63;5073841;28;957;-47
2022/03/14 09:48:25;;;;;;;;;;;;;;;12.44;22.98;96727.34;5073520;28;1021;-47
2022/03/14 09:50:52;;;;;;;;;;;;;;;12.39;22.10;96729.59;5073932;28;1158;-47
2022/03/14 09:53:18;;;;;;;;;;;;;;;12.65;23.26;96730.84;5073682;28;1028;-47
2022/03/14 09:55:46;;;;;;;;;;;;;;;12.44;23.53;96724.66;5074343;28;1072;-47
2022/03/14 09:58:13;;;;;;;;;;;;;;;12.42;23.87;96719.44;5073697;28;1057;-47
2022/03/14 10:00:40;;;;;;;;;;;;;;;12.56;23.91;96720.06;5073618;28;1044;-47
2022/03/14 10:03:06;;;;;;;;;;;;;;;12.53;23.88;96723.03;5073378;28;2006;-48
2022/03/14 10:05:32;;;;;;;;;;;;;;;12.73;23.60;96719.44;5073604;28;1045;-48
2022/03/14 10:07:59;;;;;;;;;;;;;;;12.70;23.04;96723.22;5073791;28;977;-46
2022/03/14 10:10:25;;;;;;;;;;;;;;;12.08;24.57;96714.34;5073703;28;960;-46
2022/03/14 10:12:53;;;;;;;;;;;;;;;12.10;24.28;96716.88;5073352;28;1048;-46
2022/03/14 10:15:20;;;;;;;;;;;;;;;12.17;24.35;96718.03;5073195;28;1028;-46
2022/03/14 10:17:46;;;;;;;;;;;;;;;12.19;25.10;96718.75;5073269;28;917;-46
2022/03/14 10:20:14;;;;;;;;;;;;;;;12.52;24.26;96718.63;5073571;28;1055;-46
2022/03/14 10:22:41;;;;;;;;;;;;;;;12.37;23.93;96719.00;5073494;28;1909;-47
2022/03/14 10:25:09;;;;;;;;;;;;;;;12.32;25.01;96712.34;5073061;28;1111;-48
2022/03/14 10:27:37;;;;;;;;;;;;;;;12.28;24.47;96712.59;5073408;28;992;-47
2022/03/14 10:30:05;;;;;;;;;;;;;;;12.52;25.16;96707.91;5072994;28;1036;-47
2022/03/14 10:32:31;;;;;;;;;;;;;;;12.22;23.22;96706.94;5073584;28;1027;-47
2022/03/14 10:35:03;;;;;;;;;;;;;;;12.23;24.19;96714.81;5073021;28;1051;-47
2022/03/14 10:37:29;;;;;;;;;;;;;;;12.28;24.43;96709.06;5073283;28;1024;-47
2022/03/14 10:39:56;;;;;;;;;;;;;;;11.91;24.43;96712.25;5073299;28;976;-47
2022/03/14 10:42:22;;;;;;;;;;;;;;;12.14;24.57;96715.66;5072877;28;1949;-47
2022/03/14 10:44:48;;;;;;;;;;;;;;;12.09;25.04;96709.81;5072812;28;1094;-50
2022/03/14 10:47:14;;;;;;;;;;;;;;;11.94;24.78;96703.09;5073067;28;1040;-50
2022/03/14 10:49:44;;;;;;;;;;;;;;;12.04;25.13;96707.53;5072982;28;1042;-50
2022/03/14 10:52:13;;;;;;;;;;;;;;;12.09;25.15;96701.78;5073270;28;1177;-50
2022/03/14 10:54:40;;;;;;;;;;;;;;;12.38;25.50;96706.44;5073207;28;1028;-50
2022/03/14 10:57:10;;;;;;;;;;;;;;;12.12;24.98;96712.22;5073011;28;1044;-49
2022/03/14 10:59:44;;;;;;;;;;;;;;;11.78;25.07;96707.06;5075661;28;1047;-49
2022/03/14 11:02:11;;;;;;;;;;;;;;;11.62;26.06;96709.34;5077325;28;1890;-49
2022/03/14 11:04:44;;;;;;;;;;;;;;;11.70;25.94;96704.16;5077320;28;1011;-49
2022/03/14 11:07:10;;;;;;;;;;;;;;;11.58;25.16;96710.56;5077163;28;1043;-50
2022/03/14 11:09:41;;;;;;;;;;;;;;;11.77;26.26;96705.34;5076872;28;968;-50
2022/03/14 11:12:08;;;;;;;;;;;;;;;11.98;25.02;96707.22;5076690;28;1051;-50
2022/03/14 11:14:35;;;;;;;;;;;;;;;11.96;25.94;96704.66;5076645;28;1087;-50
2022/03/14 11:17:10;;;;;;;;;;;;;;;11.94;25.52;96703.94;5076745;28;1075;-50
2022/03/14 11:19:37;;;;;;;;;;;;;;;11.46;24.91;96694.56;5077189;28;992;-50
2022/03/14 11:22:04;;;;;;;;;;;;;;;11.61;26.38;96702.25;5076564;28;1914;-50
2022/03/14 11:24:31;;;;;;;;;;;;;;;11.59;25.70;96694.38;5076531;28;992;-50
2022/03/14 11:26:57;;;;;;;;;;;;;;;11.48;24.86;96700.63;5076830;28;1120;-50
2022/03/14 11:29:26;;;;;;;;;;;;;;;11.32;25.38;96694.84;5076615;28;1020;-50
2022/03/14 11:31:55;;;;;;;;;;;;;;;11.18;24.78;96687.97;5076370;28;1754;-50
2022/03/14 11:34:26;;;;;;;;;;;;;;;10.91;24.04;96683.06;5076809;28;989;-50
2022/03/14 11:36:53;;;;;;;;;;;;;;;10.92;25.67;96682.09;5076310;28;1020;-50
2022/03/14 11:39:20;;;;;;;;;;;;;;;11.28;26.57;96680.03;5076405;28;1032;-50
2022/03/14 11:41:46;;;;;;;;;;;;;;;11.25;25.38;96678.47;5075632;28;1914;-49
2022/03/14 11:44:13;;;;;;;;;;;;;;;11.18;25.39;96669.22;5076199;28;1055;-50
2022/03/14 11:46:39;;;;;;;;;;;;;;;11.37;26.19;96667.69;5076093;28;1071;-50
2022/03/14 11:49:15;;;;;;;;;;;;;;;11.51;26.50;96676.28;5076185;28;1015;-50
2022/03/14 11:51:42;;;;;;;;;;;;;;;11.09;25.76;96668.16;5076121;28;1400;-50
2022/03/14 11:54:09;;;;;;;;;;;;;;;10.83;25.46;96664.97;5076379;28;961;-50
2022/03/14 11:56:38;;;;;;;;;;;;;;;10.95;27.06;96665.78;5076000;28;1099;-50
2022/03/14 11:59:10;;;;;;;;;;;;;;;11.03;26.41;96666.00;5076187;28;977;-50
2022/03/14 12:01:47;;;;;;;;;;;;;;;11.22;26.78;96669.81;5075977;28;1021;-49
2022/03/14 12:04:28;;;;;;;;;;;;;;;11.22;26.54;96669.81;5075894;28;941;-50
2022/03/14 12:06:58;;;;;;;;;;;;;;;10.91;26.08;96659.00;5075677;28;1959;-50
2022/03/14 12:09:24;;;;;;;;;;;;;;;10.51;24.60;96654.22;5075795;28;1132;-50
2022/03/14 12:11:56;;;;;;;;;;;;;;;10.41;25.51;96647.91;5074935;28;1115;-50
2022/03/14 12:14:44;;;;;;;;;;;;;;;10.44;26.53;96647.66;5075681;28;1076;-50
2022/03/14 12:17:13;;;;;;;;;;;;;;;10.65;26.29;96645.06;5075819;28;985;-50
2022/03/14 12:19:42;;;;;;;;;;;;;;;10.71;27.02;96639.22;5075678;28;1048;-50
2022/03/14 12:22:16;;;;;;;;;;;;;;;10.83;26.39;96632.00;5075595;28;1910;-50
2022/03/14 12:24:44;;;;;;;;;;;;;;;10.94;27.29;96643.50;5075615;28;1045;-50
2022/03/14 12:27:14;;;;;;;;;;;;;;;11.08;26.71;96633.50;5075348;28;1079;-50
2022/03/14 12:29:42;;;;;;;;;;;;;;;10.83;24.74;96637.34;5075906;28;960;-50
2022/03/14 12:32:27;;;;;;;;;;;;;;;10.24;25.72;96636.69;5075473;28;1051;-50
2022/03/14 12:34:57;;;;;;;;;;;;;;;9.99;27.28;96634.28;5075450;28;961;-50
2022/03/14 12:37:43;;;;;;;;;;;;;;;10.13;26.15;96626.88;5075281;28;1067;-50
2022/03/14 12:40:14;;;;;;;;;;;;;;;10.54;27.43;96628.06;5075341;28;1824;-49
2022/03/14 12:42:41;;;;;;;;;;;;;;;10.70;27.10;96627.66;5074712;28;1997;-49
2022/03/14 12:45:14;;;;;;;;;;;;;;;10.67;26.96;96627.06;5075240;28;1040;-49
2022/03/14 12:47:43;;;;;;;;;;;;;;;10.74;26.73;96622.91;5075131;28;1072;-49
2022/03/14 12:50:12;;;;;;;;;;;;;;;10.86;26.97;96621.88;5075096;28;987;-49
2022/03/14 12:52:57;;;;;;;;;;;;;;;10.95;27.58;96622.97;5074720;28;1161;-49
2022/03/14 12:55:23;;;;;;;;;;;;;;;10.90;27.76;96622.50;5075066;28;1060;-49
2022/03/14 12:57:52;;;;;;;;;;;;;;;10.92;27.01;96621.38;5074777;28;1119;-49
2022/03/14 13:00:18;;;;;;;;;;;;;;;10.75;26.18;96625.44;5074968;28;1116;-49
2022/03/14 13:02:44;;;;;;;;;;;;;;;10.71;26.89;96624.00;5074650;28;1918;-49